Latest Weather Observations for Gove Airport

IDD60801

Issued at 11:31 pm CST Friday 12 February 2016 (issued every 30 minutes, with the page automatically refreshed every 10 minutes)

About weather observations | Map of weather stations | Latest weather observations for NT | Other Formats
Station Details ID: 014508 Name: GOVE AIRPORT Lat: -12.27 Lon: 136.82 Height: 51.6 m
Data from the previous 72 hours. | See also: Recent months at Gove Airport
Date/Time
CST
Temp
°C
App
Temp
°C
Dew
Point
Rel
Hum
%
Delta-T
°C
Wind Press
QNH
hPa
Press
MSL
hPa
Rain
since 9 am
mm
Dir
 
Spd
km/h
Gust
km/h
Spd
kts
Gust
kts
12/11:30pm 26.4 33.5 26.0 98 0.3 CALM 0 0 0 0 1008.3 - 20.8
12/11:00pm 26.7 34.0 26.3 98 0.3 CALM 0 0 0 0 1008.2 - 20.8
12/10:30pm 26.8 34.2 26.4 98 0.3 CALM 0 0 0 0 1008.5 - 20.8
12/10:00pm 26.9 34.3 26.5 98 0.3 CALM 0 0 0 0 1008.6 - 20.8
12/09:30pm 26.8 32.9 26.2 96 0.4 SSW 6 7 3 4 1008.7 - 20.8
12/09:00pm 26.6 32.4 26.0 96 0.4 SW 7 9 4 5 1008.5 1008.1 20.8
12/08:30pm 26.9 34.2 26.3 96 0.4 CALM 0 0 0 0 1008.1 - 20.8
12/08:00pm 27.2 34.6 26.4 95 0.6 CALM 0 0 0 0 1007.7 - 20.8
12/07:30pm 27.5 34.9 26.4 94 0.8 CALM 0 0 0 0 1007.1 - 20.8
12/07:00pm 27.8 34.3 26.3 91 1.1 S 4 6 2 3 1006.8 - 20.8
12/06:30pm 28.5 35.5 25.8 85 1.9 CALM 0 0 0 0 1006.5 - 20.8
12/06:00pm 28.3 35.3 25.9 87 1.7 CALM 0 0 0 0 1006.3 1006.0 20.8
12/05:30pm 28.2 35.2 25.9 87 1.6 CALM 0 0 0 0 1006.4 - 20.8
12/05:00pm 27.8 34.8 25.8 89 1.4 CALM 0 0 0 0 1006.3 - 20.8
12/04:30pm 27.6 34.4 25.6 89 1.4 CALM 0 4 0 2 1006.4 - 20.8
12/04:00pm 27.3 33.8 25.6 90 1.2 SSW 2 6 1 3 1006.1 - 20.8
12/03:30pm 26.8 32.4 25.7 94 0.8 W 7 9 4 5 1006.2 - 20.8
12/03:00pm 26.5 31.6 25.5 94 0.7 W 9 13 5 7 1006.6 1006.3 20.8
12/02:30pm 26.2 31.6 25.5 96 0.5 SSW 7 9 4 5 1006.7 - 20.8
12/02:00pm 26.0 31.3 25.3 96 0.5 SSE 7 9 4 5 1007.0 - 20.8
12/01:58pm 26.0 31.3 25.3 96 0.5 SE 7 9 4 5 1007.0 - 20.8
12/01:47pm 25.9 30.3 25.0 95 0.6 E 11 13 6 7 1006.9 - 20.4
12/01:30pm 25.8 29.7 25.5 98 0.2 SE 15 17 8 9 1007.4 - 18.4
12/01:09pm 26.6 27.2 25.6 94 0.7 SE 33 39 18 21 1007.5 - 7.2
12/01:00pm 27.1 29.1 25.7 92 1.0 SSE 26 37 14 20 1007.1 - 0.0
12/12:54pm 27.5 29.5 25.1 87 1.7 SSE 24 37 13 20 1006.9 - 0.0
12/12:30pm 32.0 37.2 25.7 69 4.5 NNW 9 19 5 10 1006.9 - 0.0
12/12:00pm 32.5 36.9 25.0 64 5.3 NNW 11 17 6 9 1007.5 1007.2 0.0
12/11:30am 32.5 36.8 23.6 59 6.2 WNW 7 13 4 7 1008.0 - 0.0
12/11:00am 32.2 36.7 23.9 61 5.8 WSW 7 11 4 6 1008.3 - 0.0
12/10:30am 31.1 35.2 23.9 65 5.0 W 9 13 5 7 1008.7 - 0.0
12/10:00am 30.7 34.6 24.3 68 4.5 W 11 13 6 7 1009.3 - 0.0
12/09:30am 30.7 35.6 25.2 72 3.9 W 9 15 5 8 1009.4 - 0.0
12/09:00am 29.7 34.6 25.8 79 2.8 WSW 11 15 6 8 1009.5 1009.1 27.0
12/08:30am 29.0 34.7 25.9 83 2.2 W 7 9 4 5 1009.3 - 27.0
12/08:00am 28.1 33.6 25.3 85 2.0 SW 6 9 3 5 1009.1 - 27.0
12/07:30am 27.2 32.5 24.9 87 1.6 WSW 6 7 3 4 1008.7 - 27.0
12/07:00am 25.5 31.5 24.2 92 0.9 CALM 0 0 0 0 1008.2 - 27.0
12/06:30am 24.9 29.5 24.2 96 0.5 WSW 7 11 4 6 1007.8 - 27.0
12/06:00am 25.0 29.8 24.1 95 0.6 WSW 6 7 3 4 1007.4 1007.1 27.0
12/05:30am 24.9 30.9 24.3 96 0.4 CALM 0 6 0 3 1007.3 - 27.0
12/05:00am 24.9 29.5 24.2 96 0.5 SW 7 9 4 5 1006.9 - 27.0
12/04:30am 24.9 29.4 24.0 95 0.6 NW 7 9 4 5 1006.8 - 27.0
12/04:00am 24.8 29.6 24.4 98 0.3 SSW 7 9 4 5 1006.6 - 26.8
12/03:58am 24.9 29.7 24.5 98 0.3 SW 7 11 4 6 1006.7 - 26.8
12/03:30am 24.4 28.2 24.1 98 0.2 S 11 17 6 9 1007.3 - 26.0
12/03:07am 25.5 29.4 24.8 96 0.5 SSW 13 22 7 12 1007.4 - 22.2
12/03:01am 25.5 30.2 24.9 96 0.4 SW 9 13 5 7 1007.2 - 22.2
12/03:00am 25.5 30.2 24.9 96 0.4 SW 9 11 5 6 1007.2 1006.9 22.2
12/02:40am 25.6 29.8 24.7 95 0.6 WNW 11 13 6 7 1007.0 - 21.8
12/02:30am 25.6 30.5 24.7 95 0.6 W 7 13 4 7 1007.0 - 19.2
12/02:00am 26.1 30.0 25.4 96 0.5 S 15 24 8 13 1007.1 - 10.8
12/01:55am 26.4 30.2 25.3 94 0.8 S 15 24 8 13 1007.0 - 8.0
12/01:48am 26.8 32.4 25.7 94 0.8 SSE 7 15 4 8 1007.0 - 7.6
12/01:30am 27.0 32.6 25.7 93 0.9 W 7 9 4 5 1007.1 - 7.6
12/01:00am 27.1 34.2 26.0 94 0.8 CALM 0 0 0 0 1007.2 - 7.6
12/12:30am 26.8 33.4 25.8 94 0.7 SSW 2 9 1 5 1007.7 - 7.6
12/12:00am 26.8 34.0 26.1 96 0.5 CALM 0 0 0 0 1007.9 1007.6 7.6
 
Date/Time
CST
Temp
°C
App
Temp
°C
Dew
Point
Rel
Hum
%
Delta-T
°C
Wind Press
QNH
hPa
Press
MSL
hPa
Rain
since 9 am
mm
Dir
 
Spd
km/h
Gust
km/h
Spd
kts
Gust
kts
11/11:30pm 26.9 34.1 26.1 95 0.6 CALM 0 0 0 0 1007.9 - 7.6
11/11:00pm 27.1 33.4 26.0 94 0.8 SSW 4 7 2 4 1008.1 - 7.6
11/10:30pm 27.0 34.4 26.4 96 0.4 CALM 0 0 0 0 1008.2 - 7.6
11/10:00pm 27.2 34.6 26.5 96 0.5 CALM 0 0 0 0 1008.3 - 7.6
11/09:30pm 27.3 34.8 26.6 96 0.5 CALM 0 0 0 0 1007.9 - 7.6
11/09:00pm 27.4 35.0 26.7 96 0.5 CALM 0 0 0 0 1007.7 1007.4 7.6
11/08:30pm 27.8 35.6 27.0 95 0.6 CALM 0 0 0 0 1007.3 - 7.6
11/08:00pm 27.9 35.6 26.9 94 0.7 CALM 0 0 0 0 1006.9 - 7.6
11/07:30pm 28.3 36.1 27.1 93 0.9 CALM 0 0 0 0 1006.6 - 7.6
11/07:00pm 28.6 35.3 27.1 92 1.1 NE 6 7 3 4 1006.1 - 7.6
11/06:30pm 28.9 35.4 26.8 88 1.5 N 6 9 3 5 1005.6 - 7.6
11/06:00pm 29.0 35.2 26.3 85 1.9 N 6 7 3 4 1005.5 1005.2 7.6
11/05:30pm 28.5 35.4 26.3 88 1.6 W 2 6 1 3 1005.1 - 7.6
11/05:00pm 27.8 34.0 26.4 92 1.0 W 6 9 3 5 1004.9 - 7.4
11/04:30pm 27.6 33.2 26.3 93 0.9 WNW 9 13 5 7 1004.9 - 7.4
11/04:00pm 27.2 32.9 26.4 95 0.6 W 9 15 5 8 1004.6 - 7.4
11/03:30pm 27.3 32.3 26.0 93 0.9 N 11 15 6 8 1004.2 - 7.2
11/03:19pm 27.6 32.2 25.9 90 1.2 N 13 17 7 9 1004.0 - 7.2
11/03:00pm 27.5 30.6 25.7 90 1.3 WNW 20 24 11 13 1004.3 1004.0 4.4
11/02:59pm 28.1 31.3 25.8 87 1.6 WNW 20 24 11 13 1004.2 - 2.0
11/02:54pm 29.2 33.5 26.1 83 2.2 N 15 20 8 11 1004.0 - 0.2
11/02:30pm 30.8 34.8 25.0 71 4.1 N 13 20 7 11 1004.1 - 0.2
11/02:00pm 31.7 35.0 25.1 68 4.7 N 17 20 9 11 1004.6 - 0.2
11/01:30pm 33.2 37.4 24.1 59 6.4 SW 9 17 5 9 1004.8 - 0.2
11/01:00pm 32.5 36.6 25.2 65 5.2 S 13 20 7 11 1005.2 - 0.2
11/12:30pm 32.0 36.6 24.8 65 5.1 SSE 9 17 5 9 1005.8 - 0.2
11/12:00pm 31.5 35.7 24.1 65 5.2 SW 9 13 5 7 1006.3 1006.0 0.2
11/11:30am 30.7 35.4 25.0 71 4.0 S 9 17 5 9 1006.6 - 0.2
11/11:00am 30.8 34.6 25.3 72 3.9 S 15 24 8 13 1007.0 - 0.2
11/10:30am 29.9 33.8 24.9 74 3.5 S 13 19 7 10 1007.2 - 0.2
11/10:00am 28.9 34.0 25.5 82 2.4 SSW 9 15 5 8 1007.2 - 0.0
11/09:30am 27.7 32.1 24.5 83 2.2 SSW 9 13 5 7 1007.6 - 0.0
11/09:00am 26.9 30.5 24.3 86 1.8 SW 13 19 7 10 1007.7 1007.4 10.2
11/08:30am 27.1 30.5 24.1 84 2.1 SW 13 19 7 10 1007.8 - 10.2
11/08:00am 26.8 31.3 24.6 88 1.5 SW 9 15 5 8 1007.9 - 10.2
11/07:30am 26.2 30.1 24.3 89 1.3 WSW 11 17 6 9 1007.9 - 10.2
11/07:00am 25.9 29.3 24.0 89 1.3 WSW 13 19 7 10 1007.3 - 10.2
11/06:30am 25.5 30.0 23.9 91 1.1 SW 7 13 4 7 1006.3 - 10.2
11/06:00am 25.3 29.3 23.8 91 1.0 WSW 9 11 5 6 1006.2 1005.9 10.2
11/05:30am 25.1 29.7 23.8 92 0.9 WSW 6 7 3 4 1006.2 - 10.2
11/05:00am 25.1 30.9 23.9 93 0.8 CALM 0 6 0 3 1005.9 - 10.2
11/04:30am 25.1 29.5 23.8 92 0.9 WNW 7 9 4 5 1005.5 - 10.2
11/04:00am 25.2 29.9 23.9 92 0.9 WSW 6 9 3 5 1005.4 - 10.2
11/03:30am 25.2 29.9 24.3 95 0.6 SSW 7 11 4 6 1005.1 - 10.2
11/03:00am 25.2 30.1 24.3 95 0.6 SSW 6 9 3 5 1004.8 1004.5 10.2
11/02:30am 25.1 30.2 24.1 94 0.7 SW 4 7 2 4 1005.5 - 10.2
11/02:00am 25.1 29.8 23.9 93 0.8 WSW 6 7 3 4 1005.7 - 10.2
11/01:30am 25.1 29.7 23.8 92 0.9 WSW 6 7 3 4 1005.8 - 10.2
11/01:00am 25.1 29.6 23.6 91 1.0 SW 6 7 3 4 1005.8 - 10.2
11/12:30am 24.9 29.8 23.7 93 0.8 WSW 4 7 2 4 1005.9 - 10.2
11/12:00am 24.8 29.7 23.6 93 0.8 W 4 7 2 4 1006.2 1005.9 10.2
 
Date/Time
CST
Temp
°C
App
Temp
°C
Dew
Point
Rel
Hum
%
Delta-T
°C
Wind Press
QNH
hPa
Press
MSL
hPa
Rain
since 9 am
mm
Dir
 
Spd
km/h
Gust
km/h
Spd
kts
Gust
kts
10/11:30pm 25.3 30.1 23.5 90 1.2 NW 4 9 2 5 1006.6 - 10.2
10/11:00pm 25.4 29.5 23.3 88 1.4 SW 7 11 4 6 1006.8 - 10.2
10/10:30pm 25.5 29.0 22.8 85 1.8 W 9 15 5 8 1007.1 - 10.2
10/10:00pm 25.5 29.0 22.8 85 1.8 W 9 13 5 7 1006.7 - 10.2
10/09:30pm 25.4 29.0 23.0 86 1.6 W 9 15 5 8 1006.8 - 10.2
10/09:00pm 24.9 28.8 23.0 89 1.3 WNW 7 13 4 7 1006.7 1006.4 10.2
10/08:30pm 24.7 28.8 23.2 91 1.0 W 7 9 4 5 1006.3 - 10.2
10/08:00pm 24.6 28.8 23.4 93 0.8 SW 7 11 4 6 1006.2 - 10.2
10/07:30pm 24.4 27.8 23.4 94 0.7 WSW 11 15 6 8 1006.3 - 10.2
10/07:00pm 24.7 28.0 23.2 91 1.0 WSW 11 17 6 9 1006.2 - 9.8
10/06:30pm 25.4 28.8 23.4 89 1.4 W 11 15 6 8 1005.8 - 9.4
10/06:00pm 25.2 27.8 23.3 89 1.3 NW 15 20 8 11 1005.1 1004.8 9.4
10/05:30pm 24.5 27.4 23.2 92 0.9 WNW 13 19 7 10 1004.8 - 9.4
10/05:00pm 24.5 28.5 22.7 90 1.2 NW 6 9 3 5 1004.3 - 9.4
10/04:30pm 24.2 25.9 23.0 93 0.8 NNW 19 26 10 14 1004.1 - 9.2
10/04:21pm 24.1 25.8 23.1 94 0.7 N 19 24 10 13 1003.8 - 9.2
10/04:11pm 24.2 25.7 23.0 93 0.8 N 20 26 11 14 1003.8 - 9.2
10/04:00pm 24.1 25.3 23.2 95 0.6 N 22 30 12 16 1004.1 - 9.0
10/03:30pm 24.5 28.0 23.6 95 0.6 NNW 11 20 6 11 1004.7 - 5.4
10/03:00pm 24.5 26.1 21.5 83 2.0 SSW 15 - 8 - - 1004.2 3.0
10/02:58pm 24.5 25.6 21.3 82 2.1 S 17 20 9 11 1004.5 - 2.6
10/02:46pm 24.7 24.1 22.0 85 1.8 ESE 28 41 15 22 1004.8 - 2.4
10/02:30pm 29.6 31.1 24.3 73 3.7 ESE 24 32 13 17 1005.1 - 0.2
10/02:17pm 33.2 36.9 26.3 67 5.0 N 19 24 10 13 1004.3 - 0.2
10/02:00pm 33.8 36.7 26.5 65 5.3 NNW 24 32 13 17 1004.1 - 0.2
10/01:30pm 34.2 36.9 26.3 63 5.7 NW 24 35 13 19 1004.6 - 0.2
10/01:00pm 34.0 37.4 25.2 60 6.3 NW 17 24 9 13 1005.2 - 0.2
10/12:30pm 33.7 36.2 24.5 58 6.5 NW 19 24 10 13 1005.7 - 0.2
10/12:00pm 32.7 35.8 24.8 63 5.6 NW 17 30 9 16 1006.3 1006.0 0.2
10/11:30am 32.7 36.4 25.1 64 5.4 NW 15 28 8 15 1006.6 - 0.2
10/11:00am 32.6 35.8 25.0 64 5.4 WNW 17 24 9 13 1006.8 - 0.2
10/10:30am 31.7 35.0 25.1 68 4.7 NW 17 20 9 11 1007.1 - 0.2
10/10:00am 31.6 35.6 25.6 70 4.3 WNW 15 24 8 13 1007.5 - 0.2
10/09:30am 30.9 34.8 25.4 72 3.9 W 15 22 8 12 1007.6 - 0.2
10/09:00am 30.4 33.8 24.7 71 4.0 WNW 15 22 8 12 1007.7 1007.4 5.0
10/08:30am 29.7 32.9 24.9 75 3.4 W 17 24 9 13 1007.6 - 5.0
10/08:00am 29.3 33.1 24.7 76 3.2 WNW 13 24 7 13 1007.4 - 5.0
10/07:30am 28.7 33.1 25.1 81 2.5 WNW 11 19 6 10 1007.1 - 5.0
10/07:00am 28.3 31.9 25.0 82 2.3 WNW 15 20 8 11 1006.5 - 5.0
10/06:30am 28.1 32.5 25.7 87 1.7 WNW 13 20 7 11 1006.2 - 5.0
10/06:00am 28.0 32.4 25.7 87 1.6 NW 13 17 7 9 1006.1 1005.8 5.0
10/05:30am 27.6 32.7 26.2 92 1.0 NW 11 15 6 8 1005.6 - 5.0
10/05:00am 27.7 32.5 26.2 91 1.1 NW 13 15 7 8 1005.3 - 5.0
10/04:30am 27.9 32.6 26.1 90 1.3 NW 13 17 7 9 1005.1 - 5.0
10/04:00am 27.9 32.6 26.1 90 1.3 NW 13 17 7 9 1005.0 - 5.0
10/03:30am 27.7 32.5 26.2 91 1.1 NW 13 15 7 8 1005.1 - 5.0
10/03:00am 27.8 32.9 26.1 90 1.2 NW 11 15 6 8 1005.5 1005.2 5.0
10/02:30am 27.8 32.8 26.0 90 1.3 NW 11 15 6 8 1005.9 - 5.0
10/02:00am 27.9 32.2 25.5 87 1.7 NW 13 17 7 9 1006.1 - 5.0
10/01:30am 27.7 32.1 25.6 88 1.5 NW 13 15 7 8 1006.3 - 5.0
10/01:00am 28.1 31.7 25.6 86 1.8 NW 17 22 9 12 1006.8 - 5.0
10/12:30am 27.9 33.7 26.6 93 0.9 NW 9 13 5 7 1007.0 - 5.0
10/12:06am 28.3 33.5 26.8 91 1.1 NNW 13 17 7 9 1007.2 - 5.0
10/12:00am 28.3 33.8 26.8 91 1.1 NW 11 17 6 9 1007.3 1007.0 5.0
 
Date/Time
CST
Temp
°C
App
Temp
°C
Dew
Point
Rel
Hum
%
Delta-T
°C
Wind Press
QNH
hPa
Press
MSL
hPa
Rain
since 9 am
mm
Dir
 
Spd
km/h
Gust
km/h
Spd
kts
Gust
kts
09/11:48pm 28.4 33.5 26.7 90 1.2 NW 13 15 7 8 1007.4 - 5.0

Other Formats:

Comma delimited format used in spreadsheet applications
http://www.bom.gov.au/fwo/IDD60801/IDD60801.94150.axf

JavaScript Object Notation format (JSON) in row-major order
http://www.bom.gov.au/fwo/IDD60801/IDD60801.94150.json